createdAt,value
2023-03-19T00:00:28.944Z,79.00
2023-03-19T00:02:32.571Z,79.00
2023-03-19T00:04:35.948Z,78.90
2023-03-19T00:06:38.743Z,78.90
2023-03-19T00:08:41.983Z,79.00
2023-03-19T00:10:44.809Z,79.00
2023-03-19T00:12:47.534Z,79.30
2023-03-19T00:14:50.561Z,79.60
2023-03-19T00:16:54.756Z,79.60
2023-03-19T00:18:57.586Z,79.60
2023-03-19T00:21:00.512Z,79.40
2023-03-19T00:23:03.317Z,79.50
2023-03-19T00:25:06.969Z,79.40
2023-03-19T00:27:10.221Z,79.40
2023-03-19T00:29:13.672Z,79.30
2023-03-19T00:31:17.570Z,79.30
2023-03-19T00:33:21.744Z,79.20
2023-03-19T00:35:24.559Z,79.40
2023-03-19T00:37:27.385Z,79.50
2023-03-19T00:39:30.126Z,79.40
2023-03-19T00:41:33.732Z,79.50
2023-03-19T00:43:37.534Z,79.70
2023-03-19T00:45:41.391Z,79.70
2023-03-19T00:47:44.166Z,80.00
2023-03-19T00:49:48.274Z,80.20
2023-03-19T00:51:51.379Z,80.40
2023-03-19T00:53:54.106Z,80.10
2023-03-19T00:55:56.927Z,80.10
2023-03-19T00:57:59.638Z,80.10
2023-03-19T01:00:02.476Z,80.50
2023-03-19T01:02:06.201Z,80.90
2023-03-19T01:04:09.388Z,81.10
2023-03-19T01:06:13.880Z,81.60
2023-03-19T01:08:17.452Z,81.80
2023-03-19T01:10:20.665Z,82.00
2023-03-19T01:12:23.396Z,82.20
2023-03-19T01:14:26.436Z,82.20
2023-03-19T01:16:29.612Z,82.00
2023-03-19T01:18:32.689Z,81.80
2023-03-19T01:20:36.061Z,81.60
2023-03-19T01:22:41.470Z,81.50
2023-03-19T01:24:44.513Z,81.60
2023-03-19T01:26:47.334Z,81.40
2023-03-19T01:28:50.104Z,81.40
2023-03-19T01:30:53.268Z,81.40
2023-03-19T01:32:56.047Z,81.40
2023-03-19T01:34:58.875Z,81.30
2023-03-19T01:37:01.719Z,81.20
2023-03-19T01:39:05.871Z,81.00
2023-03-19T01:41:08.714Z,81.40
2023-03-19T01:43:18.376Z,81.30
2023-03-19T01:45:36.053Z,81.60
2023-03-19T01:47:41.979Z,81.40
2023-03-19T01:49:47.805Z,81.40
2023-03-19T01:51:50.724Z,81.60
2023-03-19T01:53:57.309Z,81.80
2023-03-19T01:56:05.821Z,82.10
2023-03-19T01:58:09.178Z,82.60
2023-03-19T02:00:14.418Z,82.70
2023-03-19T02:02:22.317Z,82.60
2023-03-19T02:04:26.674Z,82.70
2023-03-19T02:06:30.460Z,82.60
2023-03-19T02:08:36.486Z,82.40
2023-03-19T02:10:41.500Z,82.10
2023-03-19T02:12:45.610Z,81.90
2023-03-19T02:14:48.400Z,81.80
2023-03-19T02:16:51.716Z,81.70
2023-03-19T02:18:54.596Z,81.70
2023-03-19T02:21:03.358Z,81.70
2023-03-19T02:23:15.014Z,81.90
2023-03-19T02:25:23.540Z,82.00
2023-03-19T02:27:27.640Z,81.90
2023-03-19T02:29:30.533Z,81.90
2023-03-19T02:31:33.316Z,82.10
2023-03-19T02:33:36.668Z,82.00
2023-03-19T02:35:39.968Z,82.10
2023-03-19T02:37:42.737Z,82.30
2023-03-19T02:39:52.634Z,82.50
2023-03-19T02:41:57.750Z,82.70
2023-03-19T02:44:04.598Z,82.80
2023-03-19T02:46:09.464Z,82.80
2023-03-19T02:48:12.201Z,82.40
2023-03-19T02:50:15.091Z,82.30
2023-03-19T02:52:17.860Z,82.30
2023-03-19T02:54:20.635Z,82.60
2023-03-19T02:56:23.507Z,82.50
2023-03-19T02:58:26.234Z,82.40
2023-03-19T03:00:30.564Z,82.30
2023-03-19T03:02:33.617Z,82.20
2023-03-19T03:04:37.026Z,82.00
2023-03-19T03:06:39.772Z,82.00
2023-03-19T03:08:42.557Z,81.80
2023-03-19T03:10:45.685Z,81.70
2023-03-19T03:12:48.418Z,81.60
2023-03-19T03:14:51.267Z,81.60
2023-03-19T03:16:55.402Z,81.70
2023-03-19T03:18:58.568Z,81.60
2023-03-19T03:21:01.406Z,81.60
2023-03-19T03:23:04.147Z,81.90
2023-03-19T03:25:07.803Z,81.80
2023-03-19T03:27:10.649Z,82.30
2023-03-19T03:29:13.367Z,82.90
2023-03-19T03:31:16.874Z,83.30
2023-03-19T03:33:21.354Z,83.40
2023-03-19T03:35:24.112Z,83.30
2023-03-19T03:37:27.200Z,83.10
2023-03-19T03:39:30.060Z,82.90
2023-03-19T03:41:33.150Z,82.80
2023-03-19T03:43:35.896Z,82.60
2023-03-19T03:45:38.658Z,82.70
2023-03-19T03:47:42.185Z,82.70
2023-03-19T03:49:46.635Z,82.60
2023-03-19T03:51:49.644Z,82.70
2023-03-19T03:53:52.449Z,82.50
2023-03-19T03:55:55.624Z,82.80
2023-03-19T03:57:58.618Z,82.90
2023-03-19T04:00:01.496Z,83.00
2023-03-19T04:02:04.818Z,83.20
2023-03-19T04:04:07.531Z,83.30
2023-03-19T04:06:15.801Z,83.10
2023-03-19T04:08:18.828Z,83.10
2023-03-19T04:10:21.686Z,83.10
2023-03-19T04:12:24.430Z,82.80
2023-03-19T04:14:27.917Z,82.70
2023-03-19T04:16:30.728Z,83.10
2023-03-19T04:18:33.774Z,83.60
2023-03-19T04:20:36.859Z,83.90
2023-03-19T04:22:41.651Z,83.80
2023-03-19T04:24:44.789Z,83.60
2023-03-19T04:26:49.661Z,83.40
2023-03-19T04:28:52.407Z,83.30
2023-03-19T04:31:00.179Z,83.20
2023-03-19T04:33:03.471Z,83.10
2023-03-19T04:35:07.171Z,82.80
2023-03-19T04:37:10.365Z,83.00
2023-03-19T04:39:14.630Z,82.80
2023-03-19T04:41:17.372Z,83.10
2023-03-19T04:43:20.248Z,83.20
2023-03-19T04:45:23.080Z,83.10
2023-03-19T04:47:25.816Z,83.10
2023-03-19T04:49:28.534Z,83.10
2023-03-19T04:51:31.299Z,82.90
2023-03-19T04:53:34.170Z,82.80
2023-03-19T04:55:38.348Z,83.10
2023-03-19T04:57:41.117Z,83.50
2023-03-19T04:59:43.875Z,84.00
2023-03-19T05:01:47.086Z,83.90
2023-03-19T05:03:50.207Z,83.50
2023-03-19T05:05:54.522Z,83.70
2023-03-19T05:07:57.403Z,83.80
2023-03-19T05:10:00.293Z,83.70
2023-03-19T05:12:04.499Z,84.10
2023-03-19T05:14:07.351Z,83.30
2023-03-19T05:16:10.511Z,83.10
2023-03-19T05:18:14.684Z,83.80
2023-03-19T05:20:18.090Z,83.10
2023-03-19T05:22:21.099Z,83.00
2023-03-19T05:24:24.225Z,83.00
2023-03-19T05:26:27.110Z,83.10
2023-03-19T05:28:31.171Z,83.00
2023-03-19T05:30:34.141Z,83.10
2023-03-19T05:32:37.525Z,83.20
2023-03-19T05:34:40.495Z,83.00
2023-03-19T05:36:43.216Z,83.10
2023-03-19T05:38:45.932Z,83.20
2023-03-19T05:40:48.727Z,83.30
2023-03-19T05:42:51.966Z,83.30
2023-03-19T05:44:56.046Z,83.30
2023-03-19T05:46:58.790Z,83.30
2023-03-19T05:49:01.509Z,83.40
2023-03-19T05:51:04.714Z,83.20
2023-03-19T05:53:07.482Z,83.20
2023-03-19T05:55:11.175Z,83.50
2023-03-19T05:57:13.934Z,83.60
2023-03-19T05:59:17.147Z,83.50
2023-03-19T06:01:23.357Z,83.50
2023-03-19T06:03:27.203Z,83.40
2023-03-19T06:05:30.053Z,83.30
2023-03-19T06:07:32.830Z,83.20
2023-03-19T06:09:35.620Z,83.20
2023-03-19T06:11:40.391Z,83.20
2023-03-19T06:13:43.473Z,83.20
2023-03-19T06:15:46.419Z,83.50
2023-03-19T06:17:50.761Z,83.70
2023-03-19T06:19:53.647Z,83.60
2023-03-19T06:21:56.437Z,83.60
2023-03-19T06:23:59.457Z,83.70
2023-03-19T06:26:02.557Z,83.60
2023-03-19T06:28:05.846Z,83.60
2023-03-19T06:30:10.194Z,84.00
2023-03-19T06:32:13.632Z,84.30
2023-03-19T06:34:18.242Z,84.20
2023-03-19T06:36:21.821Z,84.10
2023-03-19T06:38:25.066Z,84.00
2023-03-19T06:40:28.178Z,84.40
2023-03-19T06:42:31.085Z,84.30
2023-03-19T06:44:33.886Z,84.20
2023-03-19T06:46:37.180Z,84.20
2023-03-19T06:48:40.307Z,84.10
2023-03-19T06:50:45.964Z,83.80
2023-03-19T06:52:48.696Z,84.40
2023-03-19T06:54:51.583Z,84.40
2023-03-19T06:56:54.381Z,84.60
2023-03-19T06:58:57.273Z,84.60
2023-03-19T07:01:00.305Z,84.40
2023-03-19T07:03:03.084Z,84.60
2023-03-19T07:05:06.555Z,84.70
2023-03-19T07:07:10.848Z,84.60
2023-03-19T07:09:13.736Z,84.70
2023-03-19T07:11:16.855Z,84.80
2023-03-19T07:13:19.636Z,85.10
2023-03-19T07:15:22.431Z,85.00
2023-03-19T07:17:26.571Z,85.00
2023-03-19T07:19:29.360Z,85.00
2023-03-19T07:21:32.116Z,85.20
2023-03-19T07:23:36.434Z,85.50
2023-03-19T07:25:39.194Z,85.60
2023-03-19T07:27:41.955Z,85.90
2023-03-19T07:29:44.741Z,86.00
2023-03-19T07:31:47.545Z,86.00
2023-03-19T07:33:50.608Z,85.90
2023-03-19T07:35:53.502Z,85.80
2023-03-19T07:37:56.338Z,85.70
2023-03-19T07:40:00.432Z,86.10
2023-03-19T07:42:03.463Z,86.40
2023-03-19T07:44:06.414Z,86.20
2023-03-19T07:46:09.616Z,86.30
2023-03-19T07:48:12.962Z,86.20
2023-03-19T07:50:16.228Z,86.20
2023-03-19T07:52:19.929Z,86.20
2023-03-19T07:54:23.666Z,85.80
2023-03-19T07:56:27.877Z,85.30
2023-03-19T07:58:30.702Z,85.30
2023-03-19T08:00:33.710Z,85.30
2023-03-19T08:02:36.660Z,85.30
2023-03-19T08:04:40.144Z,85.00
2023-03-19T08:06:42.993Z,84.60
2023-03-19T08:08:45.917Z,84.30
2023-03-19T08:10:50.775Z,84.40
2023-03-19T08:12:54.911Z,84.30
2023-03-19T08:14:57.644Z,84.10
2023-03-19T08:17:00.687Z,84.30
2023-03-19T08:19:03.592Z,84.60
2023-03-19T08:21:06.815Z,84.50
2023-03-19T08:23:09.976Z,84.40
2023-03-19T08:25:13.029Z,84.30
2023-03-19T08:27:15.917Z,84.10
2023-03-19T08:29:20.033Z,84.10
2023-03-19T08:31:22.884Z,83.80
2023-03-19T08:33:25.873Z,83.60
2023-03-19T08:35:28.738Z,83.40
2023-03-19T08:37:31.523Z,83.20
2023-03-19T08:39:34.788Z,83.40
2023-03-19T08:41:37.775Z,83.30
2023-03-19T08:43:40.906Z,83.10
2023-03-19T08:45:44.985Z,83.10
2023-03-19T08:47:49.221Z,83.00
2023-03-19T08:49:52.511Z,83.00
2023-03-19T08:51:55.240Z,82.60
2023-03-19T08:53:58.039Z,82.30
2023-03-19T08:56:02.877Z,81.80
2023-03-19T08:58:05.886Z,81.90
2023-03-19T09:00:09.950Z,81.80
2023-03-19T09:02:14.549Z,81.70
2023-03-19T09:04:17.291Z,81.60
2023-03-19T09:06:20.158Z,81.30
2023-03-19T09:08:23.162Z,81.40
2023-03-19T09:10:26.578Z,81.80
2023-03-19T09:12:29.369Z,82.10
2023-03-19T09:14:32.268Z,81.70
2023-03-19T09:16:35.097Z,81.60
2023-03-19T09:18:39.218Z,81.90
2023-03-19T09:20:42.726Z,82.10
2023-03-19T09:22:45.965Z,82.10
2023-03-19T09:24:48.733Z,81.60
2023-03-19T09:26:51.535Z,81.90
2023-03-19T09:28:54.248Z,82.00
2023-03-19T09:30:57.183Z,82.10
2023-03-19T09:33:00.070Z,82.10
2023-03-19T09:35:04.508Z,82.10
2023-03-19T09:37:07.372Z,81.70
2023-03-19T09:39:10.249Z,81.40
2023-03-19T09:41:20.825Z,81.00
2023-03-19T09:43:40.939Z,81.00
2023-03-19T09:45:44.478Z,80.70
2023-03-19T09:47:52.413Z,80.10
2023-03-19T09:49:57.945Z,79.40
2023-03-19T09:52:09.599Z,78.80
2023-03-19T09:54:25.613Z,78.60
2023-03-19T09:56:28.562Z,77.90
2023-03-19T09:58:35.763Z,77.10
2023-03-19T10:00:40.735Z,76.20
2023-03-19T10:02:44.784Z,76.20
2023-03-19T10:05:01.833Z,76.10
2023-03-19T10:07:17.038Z,75.90
2023-03-19T10:09:37.747Z,75.20
2023-03-19T10:11:57.244Z,73.80
2023-03-19T10:14:21.220Z,74.90
2023-03-19T10:16:27.193Z,74.40
2023-03-19T10:18:35.158Z,74.80
2023-03-19T10:20:49.812Z,73.70
2023-03-19T10:22:58.306Z,73.30
2023-03-19T10:25:02.611Z,73.00
2023-03-19T10:27:12.904Z,68.30
2023-03-19T10:29:19.339Z,70.70
2023-03-19T10:31:28.399Z,71.50
2023-03-19T10:33:42.755Z,71.30
2023-03-19T10:35:49.703Z,71.30
2023-03-19T10:37:55.260Z,71.60
2023-03-19T10:39:59.313Z,71.90
2023-03-19T10:42:11.221Z,70.50
2023-03-19T10:44:23.100Z,71.40
2023-03-19T10:46:25.971Z,70.80
2023-03-19T10:48:30.333Z,70.80
2023-03-19T10:50:37.045Z,71.10
2023-03-19T10:52:39.911Z,70.60
2023-03-19T10:54:45.448Z,70.10
2023-03-19T10:56:49.046Z,70.20
2023-03-19T10:59:00.584Z,69.80
2023-03-19T11:01:06.857Z,70.00
2023-03-19T11:03:30.338Z,69.50
2023-03-19T11:05:35.408Z,69.20
2023-03-19T11:07:38.879Z,69.50
2023-03-19T11:09:46.351Z,69.20
2023-03-19T11:11:51.327Z,69.20
2023-03-19T11:13:55.113Z,68.90
2023-03-19T11:16:01.228Z,68.60
2023-03-19T11:18:09.000Z,68.60
2023-03-19T11:20:23.682Z,68.60
2023-03-19T11:22:28.548Z,68.70
2023-03-19T11:24:34.300Z,67.90
2023-03-19T11:26:38.425Z,67.10
2023-03-19T11:28:44.747Z,67.00
2023-03-19T11:31:00.070Z,66.70
2023-03-19T11:33:27.808Z,66.60
2023-03-19T11:35:35.916Z,66.10
2023-03-19T11:37:52.109Z,66.50
2023-03-19T11:40:00.884Z,66.00
2023-03-19T11:42:27.022Z,66.20
2023-03-19T11:44:35.800Z,65.70
2023-03-19T11:46:47.063Z,66.00
2023-03-19T11:49:17.008Z,65.60
2023-03-19T11:51:23.799Z,65.40
2023-03-19T11:53:31.656Z,64.30
2023-03-19T11:55:40.354Z,65.20
2023-03-19T11:58:06.648Z,64.60
2023-03-19T12:00:23.370Z,64.40
2023-03-19T12:02:56.996Z,62.10
2023-03-19T12:05:23.801Z,62.80
2023-03-19T12:07:33.722Z,64.00
2023-03-19T12:09:42.590Z,64.20
2023-03-19T12:11:53.313Z,64.30
2023-03-19T12:14:12.704Z,63.50
2023-03-19T12:16:25.830Z,64.30
2023-03-19T12:18:57.212Z,64.60
2023-03-19T12:21:06.567Z,64.50
2023-03-19T12:23:18.453Z,64.20
2023-03-19T12:25:29.674Z,63.20
2023-03-19T12:27:37.924Z,63.30
2023-03-19T12:29:53.377Z,62.10
2023-03-19T12:32:21.569Z,62.70
2023-03-19T12:34:30.647Z,63.00
2023-03-19T12:36:39.361Z,63.50
2023-03-19T12:38:46.508Z,63.20
2023-03-19T12:40:53.902Z,62.70
2023-03-19T12:42:59.998Z,60.70
2023-03-19T12:45:07.099Z,61.70
2023-03-19T12:47:14.012Z,63.50
2023-03-19T12:49:20.615Z,63.60
2023-03-19T12:51:28.872Z,63.50
2023-03-19T12:53:38.448Z,63.50
2023-03-19T12:55:46.363Z,63.20
2023-03-19T12:57:52.778Z,63.10
2023-03-19T13:00:02.678Z,63.20
2023-03-19T13:02:15.386Z,63.00
2023-03-19T13:04:22.011Z,62.20
2023-03-19T13:06:29.171Z,62.50
2023-03-19T13:08:38.377Z,62.80
2023-03-19T13:10:41.293Z,64.00
2023-03-19T13:12:44.366Z,62.30
2023-03-19T13:14:53.417Z,62.20
2023-03-19T13:17:03.280Z,62.20
2023-03-19T13:19:18.069Z,61.90
2023-03-19T13:21:24.636Z,62.20
2023-03-19T13:23:34.152Z,62.50
2023-03-19T13:25:42.190Z,62.50
2023-03-19T13:27:53.966Z,61.70
2023-03-19T13:30:03.868Z,61.70
2023-03-19T13:32:09.104Z,62.30
2023-03-19T13:34:25.315Z,62.00
2023-03-19T13:36:30.733Z,61.40
2023-03-19T13:38:41.116Z,59.60
2023-03-19T13:40:49.690Z,59.40
2023-03-19T13:42:58.200Z,61.40
2023-03-19T13:45:04.416Z,61.60
2023-03-19T13:47:44.002Z,61.60
2023-03-19T13:50:21.146Z,61.50
2023-03-19T13:52:49.851Z,61.40
2023-03-19T13:54:56.663Z,61.70
2023-03-19T13:57:22.742Z,60.80
2023-03-19T13:59:28.141Z,60.40
2023-03-19T14:01:39.870Z,60.70
2023-03-19T14:03:56.017Z,60.00
2023-03-19T14:06:01.802Z,60.30
2023-03-19T14:08:18.392Z,61.50
2023-03-19T14:10:25.654Z,61.70
2023-03-19T14:12:34.051Z,61.60
2023-03-19T14:14:41.911Z,60.70
2023-03-19T14:16:47.215Z,60.70
2023-03-19T14:18:50.638Z,61.40
2023-03-19T14:21:06.479Z,61.60
2023-03-19T14:23:23.706Z,61.50
2023-03-19T14:25:55.548Z,61.40
2023-03-19T14:28:02.238Z,61.40
2023-03-19T14:30:15.649Z,61.40
2023-03-19T14:32:22.549Z,62.00
2023-03-19T14:34:28.726Z,62.60
2023-03-19T14:36:32.153Z,63.00
2023-03-19T14:38:39.450Z,63.30
2023-03-19T14:40:46.611Z,63.40
2023-03-19T14:42:59.782Z,63.50
2023-03-19T14:45:21.820Z,63.90
2023-03-19T14:47:33.038Z,64.30
2023-03-19T14:49:54.379Z,64.50
2023-03-19T14:52:02.933Z,65.00
2023-03-19T14:54:13.239Z,64.90
2023-03-19T14:56:17.404Z,64.90
2023-03-19T14:58:22.550Z,64.80
2023-03-19T15:00:25.389Z,65.30
2023-03-19T15:02:37.375Z,65.50
2023-03-19T15:04:40.147Z,65.20
2023-03-19T15:06:45.504Z,65.90
2023-03-19T15:08:50.532Z,66.50
2023-03-19T15:11:02.505Z,66.60
2023-03-19T15:13:27.582Z,66.50
2023-03-19T15:15:44.323Z,65.80
2023-03-19T15:18:01.205Z,66.60
2023-03-19T15:20:18.364Z,65.80
2023-03-19T15:22:23.490Z,65.50
2023-03-19T15:24:27.004Z,65.60
2023-03-19T15:26:34.380Z,65.40
2023-03-19T15:28:49.451Z,65.60
2023-03-19T15:31:09.897Z,65.20
2023-03-19T15:33:38.865Z,65.50
2023-03-19T15:35:43.350Z,66.10
2023-03-19T15:37:51.510Z,66.00
2023-03-19T15:39:56.290Z,65.90
2023-03-19T15:42:01.945Z,65.70
2023-03-19T15:44:11.313Z,65.80
2023-03-19T15:46:16.551Z,65.80
2023-03-19T15:48:23.565Z,65.80
2023-03-19T15:50:29.046Z,65.80
2023-03-19T15:52:33.340Z,66.00
2023-03-19T15:54:36.365Z,66.20
2023-03-19T15:56:40.260Z,66.40
2023-03-19T15:58:48.010Z,66.70
2023-03-19T16:00:53.862Z,67.00
2023-03-19T16:02:57.511Z,67.40
2023-03-19T16:05:20.995Z,67.60
2023-03-19T16:07:27.080Z,68.00
2023-03-19T16:09:34.297Z,68.90
2023-03-19T16:11:39.650Z,68.30
2023-03-19T16:13:47.562Z,67.70
2023-03-19T16:15:56.909Z,67.20
2023-03-19T16:18:10.920Z,67.10
2023-03-19T16:20:15.197Z,67.00
2023-03-19T16:22:21.843Z,66.90
2023-03-19T16:24:31.165Z,67.30
2023-03-19T16:26:39.417Z,67.80
2023-03-19T16:28:45.426Z,68.50
2023-03-19T16:30:49.312Z,68.30
2023-03-19T16:33:00.882Z,68.30
2023-03-19T16:35:06.735Z,68.30
2023-03-19T16:37:28.727Z,68.70
2023-03-19T16:39:36.545Z,69.00
2023-03-19T16:41:39.338Z,69.10
2023-03-19T16:43:46.504Z,69.40
2023-03-19T16:45:54.045Z,69.60
2023-03-19T16:47:59.621Z,69.50
2023-03-19T16:50:02.383Z,69.40
2023-03-19T16:52:05.938Z,69.80
2023-03-19T16:54:10.582Z,69.90
2023-03-19T16:56:15.925Z,69.90
2023-03-19T16:58:21.105Z,70.20
2023-03-19T17:00:25.425Z,70.30
2023-03-19T17:02:31.722Z,70.10
2023-03-19T17:04:36.039Z,70.10
2023-03-19T17:06:38.971Z,70.10
2023-03-19T17:08:42.251Z,70.30
2023-03-19T17:10:49.206Z,70.60
2023-03-19T17:12:54.283Z,70.60
2023-03-19T17:14:57.016Z,70.60
2023-03-19T17:17:01.438Z,70.70
2023-03-19T17:19:07.403Z,70.90
2023-03-19T17:21:14.581Z,71.00
2023-03-19T17:23:17.598Z,71.10
2023-03-19T17:25:20.625Z,71.10
2023-03-19T17:27:23.435Z,71.30
2023-03-19T17:29:26.422Z,71.40
2023-03-19T17:31:31.570Z,71.60
2023-03-19T17:33:34.476Z,71.50
2023-03-19T17:35:37.579Z,71.60
2023-03-19T17:37:42.079Z,71.70
2023-03-19T17:39:45.857Z,72.00
2023-03-19T17:41:48.761Z,72.30
2023-03-19T17:43:51.566Z,72.50
2023-03-19T17:45:57.005Z,72.60
2023-03-19T17:47:59.842Z,72.60
2023-03-19T17:50:02.711Z,72.70
2023-03-19T17:52:07.244Z,72.70
2023-03-19T17:54:13.472Z,73.00
2023-03-19T17:56:18.371Z,72.80
2023-03-19T17:58:23.088Z,72.90
2023-03-19T18:00:29.702Z,73.00
2023-03-19T18:02:35.585Z,72.90
2023-03-19T18:04:38.593Z,72.80
2023-03-19T18:06:44.380Z,72.70
2023-03-19T18:08:47.506Z,72.80
2023-03-19T18:10:52.064Z,72.90
2023-03-19T18:12:54.915Z,73.00
2023-03-19T18:14:57.776Z,73.00
2023-03-19T18:17:00.880Z,72.90
2023-03-19T18:19:07.501Z,73.10
2023-03-19T18:21:12.063Z,73.70
2023-03-19T18:23:16.285Z,73.20
2023-03-19T18:25:21.345Z,73.20
2023-03-19T18:27:25.452Z,73.40
2023-03-19T18:29:28.189Z,73.50
2023-03-19T18:31:31.245Z,73.50
2023-03-19T18:33:34.365Z,73.60
2023-03-19T18:35:41.085Z,73.70
2023-03-19T18:37:45.426Z,73.80
2023-03-19T18:39:49.938Z,73.90
2023-03-19T18:41:52.793Z,74.10
2023-03-19T18:43:56.919Z,74.80
2023-03-19T18:46:00.665Z,74.20
2023-03-19T18:48:03.499Z,74.10
2023-03-19T18:50:17.690Z,74.10
2023-03-19T18:52:20.657Z,74.30
2023-03-19T18:54:23.398Z,74.20
2023-03-19T18:56:29.361Z,74.10
2023-03-19T18:58:32.227Z,74.40
2023-03-19T19:00:38.245Z,74.70
2023-03-19T19:02:41.257Z,74.90
2023-03-19T19:04:44.091Z,74.90
2023-03-19T19:06:48.280Z,74.90
2023-03-19T19:08:51.348Z,75.00
2023-03-19T19:10:56.492Z,75.30
2023-03-19T19:13:01.444Z,75.20
2023-03-19T19:15:05.967Z,75.10
2023-03-19T19:17:16.558Z,75.10
2023-03-19T19:19:23.092Z,75.30
2023-03-19T19:21:26.563Z,75.20
2023-03-19T19:23:30.290Z,75.20
2023-03-19T19:25:33.232Z,75.30
2023-03-19T19:27:36.084Z,75.50
2023-03-19T19:29:39.038Z,75.50
2023-03-19T19:31:42.182Z,75.70
2023-03-19T19:33:46.287Z,76.00
2023-03-19T19:35:49.687Z,76.10
2023-03-19T19:37:53.109Z,76.20
2023-03-19T19:39:56.424Z,76.00
2023-03-19T19:41:59.597Z,76.00
2023-03-19T19:44:03.335Z,76.20
2023-03-19T19:46:06.660Z,76.40
2023-03-19T19:48:15.770Z,76.60
2023-03-19T19:50:22.051Z,76.50
2023-03-19T19:52:24.926Z,76.50
2023-03-19T19:54:27.721Z,76.40
2023-03-19T19:56:30.662Z,77.10
2023-03-19T19:58:34.380Z,77.50
2023-03-19T20:00:37.511Z,77.50
2023-03-19T20:02:40.313Z,77.40
2023-03-19T20:04:43.052Z,77.40
2023-03-19T20:06:47.272Z,77.20
2023-03-19T20:08:50.229Z,77.20
2023-03-19T20:10:53.087Z,77.20
2023-03-19T20:12:58.193Z,77.10
2023-03-19T20:15:01.327Z,77.10
2023-03-19T20:17:05.586Z,77.00
2023-03-19T20:19:12.657Z,77.00
2023-03-19T20:21:16.632Z,77.00
2023-03-19T20:23:20.858Z,77.00
2023-03-19T20:25:27.720Z,76.80
2023-03-19T20:27:33.937Z,77.10
2023-03-19T20:29:40.297Z,77.10
2023-03-19T20:31:43.811Z,77.20
2023-03-19T20:33:47.934Z,77.20
2023-03-19T20:35:51.594Z,77.40
2023-03-19T20:37:55.578Z,77.50
2023-03-19T20:39:59.854Z,77.40
2023-03-19T20:42:02.744Z,77.70
2023-03-19T20:44:06.935Z,78.00
2023-03-19T20:46:12.500Z,78.70
2023-03-19T20:48:17.269Z,79.00
2023-03-19T20:50:23.768Z,79.30
2023-03-19T20:52:26.493Z,79.80
2023-03-19T20:54:29.354Z,79.60
2023-03-19T20:56:36.779Z,80.00
2023-03-19T20:58:39.758Z,80.30
2023-03-19T21:00:43.096Z,80.50
2023-03-19T21:02:46.006Z,80.30
2023-03-19T21:04:49.461Z,80.40
2023-03-19T21:06:53.716Z,80.80
2023-03-19T21:08:59.631Z,80.10
2023-03-19T21:11:03.024Z,79.90
2023-03-19T21:13:08.120Z,79.70
2023-03-19T21:15:15.005Z,79.50
2023-03-19T21:17:18.261Z,79.40
2023-03-19T21:19:21.093Z,79.20
2023-03-19T21:21:30.314Z,79.10
2023-03-19T21:23:37.130Z,79.00
2023-03-19T21:25:40.059Z,79.00
2023-03-19T21:27:47.304Z,79.50
2023-03-19T21:29:53.009Z,79.40
2023-03-19T21:31:56.668Z,79.40
2023-03-19T21:33:59.461Z,79.30
2023-03-19T21:36:03.984Z,79.10
2023-03-19T21:38:06.761Z,79.00
2023-03-19T21:40:15.585Z,78.80
2023-03-19T21:42:21.315Z,79.10
2023-03-19T21:44:24.591Z,79.40
2023-03-19T21:46:31.612Z,79.60
2023-03-19T21:48:36.094Z,79.60
2023-03-19T21:50:39.948Z,79.30
2023-03-19T21:52:56.988Z,79.40
2023-03-19T21:55:01.445Z,79.20
2023-03-19T21:57:04.504Z,78.90
2023-03-19T21:59:13.374Z,78.50
2023-03-19T22:01:19.582Z,78.50
2023-03-19T22:03:24.560Z,78.60
2023-03-19T22:05:29.159Z,78.60
2023-03-19T22:07:32.049Z,78.50
2023-03-19T22:09:36.045Z,78.60
2023-03-19T22:11:41.664Z,79.00
2023-03-19T22:13:45.750Z,79.60
2023-03-19T22:15:50.581Z,80.00
2023-03-19T22:17:53.435Z,79.70
2023-03-19T22:19:58.271Z,79.90
2023-03-19T22:22:01.802Z,79.80
2023-03-19T22:24:04.866Z,79.60
2023-03-19T22:26:25.914Z,79.50
2023-03-19T22:28:32.154Z,79.20
2023-03-19T22:30:37.487Z,79.10
2023-03-19T22:32:40.276Z,79.00
2023-03-19T22:34:43.274Z,78.80
2023-03-19T22:36:47.515Z,79.50
2023-03-19T22:38:50.379Z,79.90
2023-03-19T22:40:55.854Z,80.10
2023-03-19T22:42:58.727Z,79.90
2023-03-19T22:45:01.473Z,79.90
2023-03-19T22:47:04.344Z,80.00
2023-03-19T22:49:13.713Z,79.60
2023-03-19T22:51:18.344Z,79.40
2023-03-19T22:53:24.931Z,79.20
2023-03-19T22:55:27.737Z,79.40
2023-03-19T22:57:30.557Z,79.60
2023-03-19T22:59:33.333Z,79.40
2023-03-19T23:01:39.309Z,79.60
2023-03-19T23:03:42.896Z,79.70
2023-03-19T23:05:49.348Z,80.50
2023-03-19T23:07:52.348Z,80.10
2023-03-19T23:09:56.790Z,80.30
2023-03-19T23:12:00.964Z,80.40
2023-03-19T23:14:03.845Z,80.50
2023-03-19T23:16:20.852Z,80.50
2023-03-19T23:18:29.589Z,80.50
2023-03-19T23:20:33.758Z,80.40
2023-03-19T23:22:36.544Z,80.50
2023-03-19T23:24:39.258Z,80.40
2023-03-19T23:26:45.388Z,80.40
2023-03-19T23:28:48.654Z,80.60
2023-03-19T23:30:52.386Z,80.90
2023-03-19T23:32:56.257Z,80.90
2023-03-19T23:35:01.588Z,81.00
2023-03-19T23:37:04.810Z,81.00
2023-03-19T23:39:08.121Z,80.90
2023-03-19T23:41:18.932Z,80.80
2023-03-19T23:43:25.760Z,81.00
2023-03-19T23:45:34.327Z,81.70
2023-03-19T23:47:37.534Z,81.00
2023-03-19T23:49:40.353Z,81.00
2023-03-19T23:51:43.744Z,81.00
2023-03-19T23:53:46.841Z,81.00
2023-03-19T23:55:52.573Z,80.90
2023-03-19T23:57:55.741Z,80.90
